sensor_id;sensor_type;location;lat;lon;timestamp;P1;durP1;ratioP1;P2;durP2;ratioP2
33160;SDS011;19522;45.656;11.302;2023-03-05T00:02:05;45.10;;;28.83;;
33160;SDS011;19522;45.656;11.302;2023-03-05T00:04:31;42.25;;;27.65;;
33160;SDS011;19522;45.656;11.302;2023-03-05T00:06:56;46.25;;;28.42;;
33160;SDS011;19522;45.656;11.302;2023-03-05T00:09:22;46.30;;;29.00;;
33160;SDS011;19522;45.656;11.302;2023-03-05T00:11:47;41.05;;;26.08;;
33160;SDS011;19522;45.656;11.302;2023-03-05T00:14:13;42.78;;;26.25;;
33160;SDS011;19522;45.656;11.302;2023-03-05T00:16:38;46.65;;;29.60;;
33160;SDS011;19522;45.656;11.302;2023-03-05T00:19:04;45.17;;;29.98;;
33160;SDS011;19522;45.656;11.302;2023-03-05T00:21:31;44.13;;;28.77;;
33160;SDS011;19522;45.656;11.302;2023-03-05T00:23:59;45.50;;;28.15;;
33160;SDS011;19522;45.656;11.302;2023-03-05T00:26:26;46.95;;;27.88;;
33160;SDS011;19522;45.656;11.302;2023-03-05T00:28:52;42.78;;;26.30;;
33160;SDS011;19522;45.656;11.302;2023-03-05T00:31:20;47.28;;;27.38;;
33160;SDS011;19522;45.656;11.302;2023-03-05T00:33:52;44.45;;;26.70;;
33160;SDS011;19522;45.656;11.302;2023-03-05T00:36:19;45.63;;;28.13;;
33160;SDS011;19522;45.656;11.302;2023-03-05T00:38:44;47.28;;;27.55;;
33160;SDS011;19522;45.656;11.302;2023-03-05T00:41:10;42.67;;;26.60;;
33160;SDS011;19522;45.656;11.302;2023-03-05T00:43:36;39.22;;;26.05;;
33160;SDS011;19522;45.656;11.302;2023-03-05T00:46:01;46.22;;;27.38;;
33160;SDS011;19522;45.656;11.302;2023-03-05T00:48:27;44.63;;;27.80;;
33160;SDS011;19522;45.656;11.302;2023-03-05T00:50:53;38.85;;;25.70;;
33160;SDS011;19522;45.656;11.302;2023-03-05T00:53:18;44.58;;;27.63;;
33160;SDS011;19522;45.656;11.302;2023-03-05T00:55:44;50.88;;;29.20;;
33160;SDS011;19522;45.656;11.302;2023-03-05T00:58:09;54.92;;;30.20;;
33160;SDS011;19522;45.656;11.302;2023-03-05T01:00:35;54.22;;;31.77;;
33160;SDS011;19522;45.656;11.302;2023-03-05T01:03:01;51.90;;;29.58;;
33160;SDS011;19522;45.656;11.302;2023-03-05T01:05:26;48.97;;;29.92;;
33160;SDS011;19522;45.656;11.302;2023-03-05T01:07:52;46.70;;;27.92;;
33160;SDS011;19522;45.656;11.302;2023-03-05T01:10:19;62.25;;;33.88;;
33160;SDS011;19522;45.656;11.302;2023-03-05T01:12:45;48.47;;;29.98;;
33160;SDS011;19522;45.656;11.302;2023-03-05T01:15:11;43.83;;;26.02;;
33160;SDS011;19522;45.656;11.302;2023-03-05T01:17:36;44.40;;;26.70;;
33160;SDS011;19522;45.656;11.302;2023-03-05T01:20:03;48.03;;;28.35;;
33160;SDS011;19522;45.656;11.302;2023-03-05T01:22:30;45.60;;;28.75;;
33160;SDS011;19522;45.656;11.302;2023-03-05T01:24:55;46.05;;;27.08;;
33160;SDS011;19522;45.656;11.302;2023-03-05T01:27:21;49.33;;;27.90;;
33160;SDS011;19522;45.656;11.302;2023-03-05T01:29:47;47.88;;;28.23;;
33160;SDS011;19522;45.656;11.302;2023-03-05T01:32:13;46.72;;;27.95;;
33160;SDS011;19522;45.656;11.302;2023-03-05T01:34:38;42.80;;;26.52;;
33160;SDS011;19522;45.656;11.302;2023-03-05T01:37:06;41.97;;;27.15;;
33160;SDS011;19522;45.656;11.302;2023-03-05T01:39:32;43.88;;;26.38;;
33160;SDS011;19522;45.656;11.302;2023-03-05T01:41:58;43.20;;;26.92;;
33160;SDS011;19522;45.656;11.302;2023-03-05T01:44:25;46.80;;;28.55;;
33160;SDS011;19522;45.656;11.302;2023-03-05T01:46:51;46.10;;;26.83;;
33160;SDS011;19522;45.656;11.302;2023-03-05T01:52:05;43.25;;;27.15;;
33160;SDS011;19522;45.656;11.302;2023-03-05T01:57:20;43.72;;;26.58;;
33160;SDS011;19522;45.656;11.302;2023-03-05T01:59:50;40.13;;;24.23;;
33160;SDS011;19522;45.656;11.302;2023-03-05T02:02:19;43.72;;;26.70;;
33160;SDS011;19522;45.656;11.302;2023-03-05T02:05:03;43.08;;;26.70;;
33160;SDS011;19522;45.656;11.302;2023-03-05T02:07:32;45.20;;;26.08;;
33160;SDS011;19522;45.656;11.302;2023-03-05T02:10:01;39.13;;;24.45;;
33160;SDS011;19522;45.656;11.302;2023-03-05T02:12:38;43.53;;;25.00;;
33160;SDS011;19522;45.656;11.302;2023-03-05T02:15:04;39.58;;;24.42;;
33160;SDS011;19522;45.656;11.302;2023-03-05T02:17:30;44.72;;;25.40;;
33160;SDS011;19522;45.656;11.302;2023-03-05T02:20:01;43.67;;;26.35;;
33160;SDS011;19522;45.656;11.302;2023-03-05T02:22:32;43.22;;;26.00;;
33160;SDS011;19522;45.656;11.302;2023-03-05T02:24:59;44.63;;;26.27;;
33160;SDS011;19522;45.656;11.302;2023-03-05T02:27:26;45.30;;;26.15;;
33160;SDS011;19522;45.656;11.302;2023-03-05T02:32:25;44.00;;;25.52;;
33160;SDS011;19522;45.656;11.302;2023-03-05T02:34:50;48.95;;;29.27;;
33160;SDS011;19522;45.656;11.302;2023-03-05T02:37:16;39.60;;;24.52;;
33160;SDS011;19522;45.656;11.302;2023-03-05T02:39:41;43.15;;;26.35;;
33160;SDS011;19522;45.656;11.302;2023-03-05T02:42:07;40.03;;;25.35;;
33160;SDS011;19522;45.656;11.302;2023-03-05T02:44:32;41.67;;;26.58;;
33160;SDS011;19522;45.656;11.302;2023-03-05T02:46:58;41.65;;;25.70;;
33160;SDS011;19522;45.656;11.302;2023-03-05T02:49:24;42.53;;;24.75;;
33160;SDS011;19522;45.656;11.302;2023-03-05T02:51:49;45.35;;;25.90;;
33160;SDS011;19522;45.656;11.302;2023-03-05T02:54:15;43.58;;;25.58;;
33160;SDS011;19522;45.656;11.302;2023-03-05T02:56:40;41.55;;;26.95;;
33160;SDS011;19522;45.656;11.302;2023-03-05T02:59:07;42.65;;;25.90;;
33160;SDS011;19522;45.656;11.302;2023-03-05T03:01:32;43.40;;;26.40;;
33160;SDS011;19522;45.656;11.302;2023-03-05T03:03:58;46.05;;;26.20;;
33160;SDS011;19522;45.656;11.302;2023-03-05T03:06:23;48.08;;;27.55;;
33160;SDS011;19522;45.656;11.302;2023-03-05T03:08:49;44.55;;;26.65;;
33160;SDS011;19522;45.656;11.302;2023-03-05T03:11:15;47.03;;;26.83;;
33160;SDS011;19522;45.656;11.302;2023-03-05T03:13:41;42.50;;;26.10;;
33160;SDS011;19522;45.656;11.302;2023-03-05T03:16:08;45.50;;;26.83;;
33160;SDS011;19522;45.656;11.302;2023-03-05T03:18:38;51.97;;;26.88;;
33160;SDS011;19522;45.656;11.302;2023-03-05T03:21:04;45.00;;;27.00;;
33160;SDS011;19522;45.656;11.302;2023-03-05T03:23:30;42.20;;;25.65;;
33160;SDS011;19522;45.656;11.302;2023-03-05T03:25:55;44.15;;;25.25;;
33160;SDS011;19522;45.656;11.302;2023-03-05T03:28:21;42.80;;;25.35;;
33160;SDS011;19522;45.656;11.302;2023-03-05T03:30:47;41.50;;;26.17;;
33160;SDS011;19522;45.656;11.302;2023-03-05T03:33:12;43.70;;;26.65;;
33160;SDS011;19522;45.656;11.302;2023-03-05T03:35:38;51.03;;;25.65;;
33160;SDS011;19522;45.656;11.302;2023-03-05T03:38:03;40.13;;;24.45;;
33160;SDS011;19522;45.656;11.302;2023-03-05T03:40:29;41.60;;;25.67;;
33160;SDS011;19522;45.656;11.302;2023-03-05T03:42:55;47.17;;;25.75;;
33160;SDS011;19522;45.656;11.302;2023-03-05T03:45:20;45.67;;;26.15;;
33160;SDS011;19522;45.656;11.302;2023-03-05T03:47:47;43.55;;;25.08;;
33160;SDS011;19522;45.656;11.302;2023-03-05T03:50:13;44.35;;;25.70;;
33160;SDS011;19522;45.656;11.302;2023-03-05T03:52:38;46.15;;;26.88;;
33160;SDS011;19522;45.656;11.302;2023-03-05T03:55:04;44.92;;;27.73;;
33160;SDS011;19522;45.656;11.302;2023-03-05T03:57:30;45.22;;;26.50;;
33160;SDS011;19522;45.656;11.302;2023-03-05T03:59:57;41.22;;;25.73;;
33160;SDS011;19522;45.656;11.302;2023-03-05T04:02:23;43.63;;;26.95;;
33160;SDS011;19522;45.656;11.302;2023-03-05T04:04:49;40.25;;;24.48;;
33160;SDS011;19522;45.656;11.302;2023-03-05T04:07:15;44.08;;;25.20;;
33160;SDS011;19522;45.656;11.302;2023-03-05T04:09:41;42.70;;;25.67;;
33160;SDS011;19522;45.656;11.302;2023-03-05T04:12:07;43.60;;;25.80;;
33160;SDS011;19522;45.656;11.302;2023-03-05T04:14:33;43.20;;;25.52;;
33160;SDS011;19522;45.656;11.302;2023-03-05T04:16:58;42.17;;;26.65;;
33160;SDS011;19522;45.656;11.302;2023-03-05T04:19:24;42.95;;;24.92;;
33160;SDS011;19522;45.656;11.302;2023-03-05T04:21:50;46.55;;;27.25;;
33160;SDS011;19522;45.656;11.302;2023-03-05T04:24:15;41.22;;;25.23;;
33160;SDS011;19522;45.656;11.302;2023-03-05T04:26:41;44.20;;;26.60;;
33160;SDS011;19522;45.656;11.302;2023-03-05T04:29:06;40.65;;;25.42;;
33160;SDS011;19522;45.656;11.302;2023-03-05T04:31:32;43.08;;;26.48;;
33160;SDS011;19522;45.656;11.302;2023-03-05T04:33:58;42.78;;;25.63;;
33160;SDS011;19522;45.656;11.302;2023-03-05T04:36:24;41.63;;;26.08;;
33160;SDS011;19522;45.656;11.302;2023-03-05T04:38:49;40.25;;;24.90;;
33160;SDS011;19522;45.656;11.302;2023-03-05T04:41:15;40.20;;;25.67;;
33160;SDS011;19522;45.656;11.302;2023-03-05T04:43:40;45.97;;;26.08;;
33160;SDS011;19522;45.656;11.302;2023-03-05T04:46:06;38.92;;;25.88;;
33160;SDS011;19522;45.656;11.302;2023-03-05T04:48:31;41.33;;;25.15;;
33160;SDS011;19522;45.656;11.302;2023-03-05T04:50:57;45.58;;;27.00;;
33160;SDS011;19522;45.656;11.302;2023-03-05T04:53:22;39.75;;;23.95;;
33160;SDS011;19522;45.656;11.302;2023-03-05T04:55:54;42.47;;;24.52;;
33160;SDS011;19522;45.656;11.302;2023-03-05T04:58:21;41.30;;;25.55;;
33160;SDS011;19522;45.656;11.302;2023-03-05T05:00:47;42.22;;;24.17;;
33160;SDS011;19522;45.656;11.302;2023-03-05T05:03:12;38.10;;;23.90;;
33160;SDS011;19522;45.656;11.302;2023-03-05T05:05:38;39.33;;;23.80;;
33160;SDS011;19522;45.656;11.302;2023-03-05T05:08:03;43.50;;;25.50;;
33160;SDS011;19522;45.656;11.302;2023-03-05T05:10:29;37.72;;;24.75;;
33160;SDS011;19522;45.656;11.302;2023-03-05T05:12:55;38.80;;;24.15;;
33160;SDS011;19522;45.656;11.302;2023-03-05T05:15:21;45.70;;;25.67;;
33160;SDS011;19522;45.656;11.302;2023-03-05T05:17:47;41.35;;;24.88;;
33160;SDS011;19522;45.656;11.302;2023-03-05T05:20:14;44.05;;;25.85;;
33160;SDS011;19522;45.656;11.302;2023-03-05T05:22:41;41.78;;;24.23;;
33160;SDS011;19522;45.656;11.302;2023-03-05T05:25:07;44.80;;;25.33;;
33160;SDS011;19522;45.656;11.302;2023-03-05T05:27:34;43.95;;;24.75;;
33160;SDS011;19522;45.656;11.302;2023-03-05T05:30:00;39.42;;;24.55;;
33160;SDS011;19522;45.656;11.302;2023-03-05T05:32:26;46.65;;;25.83;;
33160;SDS011;19522;45.656;11.302;2023-03-05T05:34:52;44.08;;;25.08;;
33160;SDS011;19522;45.656;11.302;2023-03-05T05:37:19;41.67;;;23.65;;
33160;SDS011;19522;45.656;11.302;2023-03-05T05:39:45;45.70;;;25.95;;
33160;SDS011;19522;45.656;11.302;2023-03-05T05:42:14;42.83;;;24.33;;
33160;SDS011;19522;45.656;11.302;2023-03-05T05:44:44;42.10;;;25.08;;
33160;SDS011;19522;45.656;11.302;2023-03-05T05:47:11;44.47;;;25.13;;
33160;SDS011;19522;45.656;11.302;2023-03-05T05:49:36;42.65;;;24.25;;
33160;SDS011;19522;45.656;11.302;2023-03-05T05:52:02;41.08;;;25.95;;
33160;SDS011;19522;45.656;11.302;2023-03-05T05:54:28;45.45;;;26.27;;
33160;SDS011;19522;45.656;11.302;2023-03-05T05:56:53;58.42;;;34.30;;
33160;SDS011;19522;45.656;11.302;2023-03-05T05:59:19;78.15;;;41.92;;
33160;SDS011;19522;45.656;11.302;2023-03-05T06:01:44;47.65;;;30.33;;
33160;SDS011;19522;45.656;11.302;2023-03-05T06:04:10;42.08;;;25.35;;
33160;SDS011;19522;45.656;11.302;2023-03-05T06:06:35;41.72;;;25.23;;
33160;SDS011;19522;45.656;11.302;2023-03-05T06:09:01;43.10;;;24.30;;
33160;SDS011;19522;45.656;11.302;2023-03-05T06:11:27;42.30;;;26.13;;
33160;SDS011;19522;45.656;11.302;2023-03-05T06:13:53;37.47;;;24.02;;
33160;SDS011;19522;45.656;11.302;2023-03-05T06:16:19;43.42;;;24.48;;
33160;SDS011;19522;45.656;11.302;2023-03-05T06:18:48;44.05;;;26.88;;
33160;SDS011;19522;45.656;11.302;2023-03-05T06:21:15;38.90;;;25.65;;
33160;SDS011;19522;45.656;11.302;2023-03-05T06:23:42;39.75;;;24.85;;
33160;SDS011;19522;45.656;11.302;2023-03-05T06:26:10;39.58;;;25.00;;
33160;SDS011;19522;45.656;11.302;2023-03-05T06:28:37;44.53;;;27.02;;
33160;SDS011;19522;45.656;11.302;2023-03-05T06:31:04;41.92;;;26.80;;
33160;SDS011;19522;45.656;11.302;2023-03-05T06:33:32;37.83;;;25.38;;
33160;SDS011;19522;45.656;11.302;2023-03-05T06:35:58;39.55;;;25.60;;
33160;SDS011;19522;45.656;11.302;2023-03-05T06:38:28;40.92;;;25.77;;
33160;SDS011;19522;45.656;11.302;2023-03-05T06:40:53;43.45;;;26.38;;
33160;SDS011;19522;45.656;11.302;2023-03-05T06:43:19;47.78;;;26.58;;
33160;SDS011;19522;45.656;11.302;2023-03-05T06:45:44;44.17;;;25.98;;
33160;SDS011;19522;45.656;11.302;2023-03-05T06:48:10;41.75;;;26.23;;
33160;SDS011;19522;45.656;11.302;2023-03-05T06:50:36;47.25;;;26.23;;
33160;SDS011;19522;45.656;11.302;2023-03-05T06:53:02;42.92;;;25.73;;
33160;SDS011;19522;45.656;11.302;2023-03-05T06:55:28;43.17;;;27.45;;
33160;SDS011;19522;45.656;11.302;2023-03-05T06:57:54;44.40;;;27.60;;
33160;SDS011;19522;45.656;11.302;2023-03-05T07:00:20;43.13;;;26.15;;
33160;SDS011;19522;45.656;11.302;2023-03-05T07:02:46;40.72;;;25.83;;
33160;SDS011;19522;45.656;11.302;2023-03-05T07:05:11;44.90;;;26.77;;
33160;SDS011;19522;45.656;11.302;2023-03-05T07:07:37;45.92;;;27.50;;
33160;SDS011;19522;45.656;11.302;2023-03-05T07:10:03;47.08;;;27.95;;
33160;SDS011;19522;45.656;11.302;2023-03-05T07:12:31;44.78;;;26.02;;
33160;SDS011;19522;45.656;11.302;2023-03-05T07:14:58;46.97;;;26.85;;
33160;SDS011;19522;45.656;11.302;2023-03-05T07:17:23;42.65;;;27.33;;
33160;SDS011;19522;45.656;11.302;2023-03-05T07:19:49;49.53;;;29.40;;
33160;SDS011;19522;45.656;11.302;2023-03-05T07:22:14;48.38;;;29.55;;
33160;SDS011;19522;45.656;11.302;2023-03-05T07:24:40;46.90;;;27.90;;
33160;SDS011;19522;45.656;11.302;2023-03-05T07:27:06;44.60;;;28.88;;
33160;SDS011;19522;45.656;11.302;2023-03-05T07:29:31;44.25;;;28.05;;
33160;SDS011;19522;45.656;11.302;2023-03-05T07:31:57;45.50;;;27.63;;
33160;SDS011;19522;45.656;11.302;2023-03-05T07:34:22;48.22;;;28.52;;
33160;SDS011;19522;45.656;11.302;2023-03-05T07:36:49;45.75;;;28.63;;
33160;SDS011;19522;45.656;11.302;2023-03-05T07:39:15;47.38;;;29.10;;
33160;SDS011;19522;45.656;11.302;2023-03-05T07:41:42;45.03;;;27.55;;
33160;SDS011;19522;45.656;11.302;2023-03-05T07:44:08;43.50;;;28.30;;
33160;SDS011;19522;45.656;11.302;2023-03-05T07:46:34;43.35;;;27.52;;
33160;SDS011;19522;45.656;11.302;2023-03-05T07:49:00;44.47;;;27.73;;
33160;SDS011;19522;45.656;11.302;2023-03-05T07:51:26;46.30;;;28.10;;
33160;SDS011;19522;45.656;11.302;2023-03-05T07:53:52;45.58;;;27.02;;
33160;SDS011;19522;45.656;11.302;2023-03-05T07:56:20;40.58;;;25.90;;
33160;SDS011;19522;45.656;11.302;2023-03-05T07:58:58;41.60;;;26.02;;
33160;SDS011;19522;45.656;11.302;2023-03-05T08:01:25;45.67;;;27.52;;
33160;SDS011;19522;45.656;11.302;2023-03-05T08:03:50;41.60;;;26.50;;
33160;SDS011;19522;45.656;11.302;2023-03-05T08:06:16;40.50;;;26.83;;
33160;SDS011;19522;45.656;11.302;2023-03-05T08:08:42;42.50;;;27.45;;
33160;SDS011;19522;45.656;11.302;2023-03-05T08:11:09;45.55;;;28.20;;
33160;SDS011;19522;45.656;11.302;2023-03-05T08:13:36;39.20;;;25.92;;
33160;SDS011;19522;45.656;11.302;2023-03-05T08:16:07;41.45;;;25.13;;
33160;SDS011;19522;45.656;11.302;2023-03-05T08:18:35;41.63;;;26.15;;
33160;SDS011;19522;45.656;11.302;2023-03-05T08:21:01;39.63;;;25.00;;
33160;SDS011;19522;45.656;11.302;2023-03-05T08:23:27;40.30;;;26.10;;
33160;SDS011;19522;45.656;11.302;2023-03-05T08:25:53;41.25;;;26.83;;
33160;SDS011;19522;45.656;11.302;2023-03-05T08:28:18;40.40;;;26.33;;
33160;SDS011;19522;45.656;11.302;2023-03-05T08:30:44;34.05;;;24.48;;
33160;SDS011;19522;45.656;11.302;2023-03-05T08:33:11;37.63;;;25.25;;
33160;SDS011;19522;45.656;11.302;2023-03-05T08:35:37;35.80;;;24.40;;
33160;SDS011;19522;45.656;11.302;2023-03-05T08:38:03;34.58;;;23.27;;
33160;SDS011;19522;45.656;11.302;2023-03-05T08:40:29;37.60;;;25.98;;
33160;SDS011;19522;45.656;11.302;2023-03-05T08:42:54;39.95;;;25.50;;
33160;SDS011;19522;45.656;11.302;2023-03-05T08:45:21;35.65;;;25.80;;
33160;SDS011;19522;45.656;11.302;2023-03-05T08:47:47;38.58;;;25.55;;
33160;SDS011;19522;45.656;11.302;2023-03-05T08:50:13;35.83;;;26.85;;
33160;SDS011;19522;45.656;11.302;2023-03-05T08:52:39;36.85;;;25.63;;
33160;SDS011;19522;45.656;11.302;2023-03-05T08:55:04;41.92;;;27.35;;
33160;SDS011;19522;45.656;11.302;2023-03-05T08:57:30;43.55;;;27.70;;
33160;SDS011;19522;45.656;11.302;2023-03-05T08:59:56;37.38;;;27.33;;
33160;SDS011;19522;45.656;11.302;2023-03-05T09:02:21;42.30;;;27.60;;
33160;SDS011;19522;45.656;11.302;2023-03-05T09:04:47;39.38;;;27.33;;
33160;SDS011;19522;45.656;11.302;2023-03-05T09:07:12;37.25;;;25.27;;
33160;SDS011;19522;45.656;11.302;2023-03-05T09:09:38;36.80;;;24.80;;
33160;SDS011;19522;45.656;11.302;2023-03-05T09:12:04;39.08;;;26.05;;
33160;SDS011;19522;45.656;11.302;2023-03-05T09:14:30;38.67;;;25.38;;
33160;SDS011;19522;45.656;11.302;2023-03-05T09:16:55;40.33;;;25.67;;
33160;SDS011;19522;45.656;11.302;2023-03-05T09:19:22;37.08;;;25.30;;
33160;SDS011;19522;45.656;11.302;2023-03-05T09:21:48;43.17;;;28.10;;
33160;SDS011;19522;45.656;11.302;2023-03-05T09:24:14;42.05;;;27.70;;
33160;SDS011;19522;45.656;11.302;2023-03-05T09:26:40;42.15;;;27.85;;
33160;SDS011;19522;45.656;11.302;2023-03-05T09:29:06;39.45;;;25.95;;
33160;SDS011;19522;45.656;11.302;2023-03-05T09:31:33;40.67;;;28.48;;
33160;SDS011;19522;45.656;11.302;2023-03-05T09:34:00;43.17;;;28.30;;
33160;SDS011;19522;45.656;11.302;2023-03-05T09:36:27;45.53;;;30.40;;
33160;SDS011;19522;45.656;11.302;2023-03-05T09:38:54;47.67;;;31.67;;
33160;SDS011;19522;45.656;11.302;2023-03-05T09:49:42;46.95;;;29.67;;
33160;SDS011;19522;45.656;11.302;2023-03-05T09:52:33;47.10;;;28.80;;
33160;SDS011;19522;45.656;11.302;2023-03-05T09:55:00;47.80;;;30.17;;
33160;SDS011;19522;45.656;11.302;2023-03-05T09:57:43;45.42;;;30.35;;
33160;SDS011;19522;45.656;11.302;2023-03-05T10:03:08;44.03;;;30.02;;
33160;SDS011;19522;45.656;11.302;2023-03-05T10:06:42;47.85;;;30.85;;
33160;SDS011;19522;45.656;11.302;2023-03-05T10:14:28;52.92;;;32.25;;
33160;SDS011;19522;45.656;11.302;2023-03-05T10:22:16;51.22;;;32.08;;
33160;SDS011;19522;45.656;11.302;2023-03-05T10:27:48;50.25;;;31.33;;
33160;SDS011;19522;45.656;11.302;2023-03-05T10:46:42;48.20;;;30.23;;
33160;SDS011;19522;45.656;11.302;2023-03-05T10:49:16;46.63;;;30.67;;
33160;SDS011;19522;45.656;11.302;2023-03-05T10:51:51;45.80;;;30.20;;
33160;SDS011;19522;45.656;11.302;2023-03-05T10:59:51;45.97;;;30.27;;
33160;SDS011;19522;45.656;11.302;2023-03-05T11:02:19;46.00;;;30.83;;
33160;SDS011;19522;45.656;11.302;2023-03-05T11:04:46;46.25;;;28.33;;
33160;SDS011;19522;45.656;11.302;2023-03-05T11:09:41;45.83;;;28.95;;
33160;SDS011;19522;45.656;11.302;2023-03-05T11:12:27;46.30;;;28.45;;
33160;SDS011;19522;45.656;11.302;2023-03-05T11:17:42;44.97;;;29.65;;
33160;SDS011;19522;45.656;11.302;2023-03-05T11:23:12;41.67;;;28.45;;
33160;SDS011;19522;45.656;11.302;2023-03-05T11:31:19;44.17;;;30.10;;
33160;SDS011;19522;45.656;11.302;2023-03-05T11:34:01;47.15;;;31.35;;
33160;SDS011;19522;45.656;11.302;2023-03-05T11:39:31;44.45;;;30.83;;
33160;SDS011;19522;45.656;11.302;2023-03-05T11:42:09;46.53;;;32.03;;
33160;SDS011;19522;45.656;11.302;2023-03-05T11:47:31;49.42;;;32.00;;
33160;SDS011;19522;45.656;11.302;2023-03-05T11:50:09;46.22;;;31.40;;
33160;SDS011;19522;45.656;11.302;2023-03-05T11:52:45;46.58;;;31.90;;
33160;SDS011;19522;45.656;11.302;2023-03-05T11:55:14;45.90;;;31.98;;
33160;SDS011;19522;45.656;11.302;2023-03-05T11:57:44;50.42;;;33.78;;
33160;SDS011;19522;45.656;11.302;2023-03-05T12:00:15;47.80;;;32.00;;
33160;SDS011;19522;45.656;11.302;2023-03-05T12:02:47;53.05;;;33.95;;
33160;SDS011;19522;45.656;11.302;2023-03-05T12:05:17;51.30;;;33.75;;
33160;SDS011;19522;45.656;11.302;2023-03-05T12:07:44;47.83;;;32.08;;
33160;SDS011;19522;45.656;11.302;2023-03-05T12:10:16;52.60;;;32.58;;
33160;SDS011;19522;45.656;11.302;2023-03-05T12:21:07;40.90;;;27.45;;
33160;SDS011;19522;45.656;11.302;2023-03-05T12:47:34;41.47;;;27.92;;
33160;SDS011;19522;45.656;11.302;2023-03-05T12:50:00;41.45;;;27.80;;
33160;SDS011;19522;45.656;11.302;2023-03-05T12:52:27;43.65;;;28.45;;
33160;SDS011;19522;45.656;11.302;2023-03-05T12:54:56;44.53;;;29.52;;
33160;SDS011;19522;45.656;11.302;2023-03-05T12:57:31;45.17;;;29.23;;
33160;SDS011;19522;45.656;11.302;2023-03-05T12:59:58;45.90;;;29.60;;
33160;SDS011;19522;45.656;11.302;2023-03-05T13:02:39;45.65;;;29.35;;
33160;SDS011;19522;45.656;11.302;2023-03-05T13:05:22;45.10;;;29.23;;
33160;SDS011;19522;45.656;11.302;2023-03-05T13:08:08;45.22;;;30.25;;
33160;SDS011;19522;45.656;11.302;2023-03-05T13:10:34;45.00;;;30.23;;
33160;SDS011;19522;45.656;11.302;2023-03-05T13:13:00;47.30;;;31.55;;
33160;SDS011;19522;45.656;11.302;2023-03-05T13:15:26;46.42;;;31.00;;
33160;SDS011;19522;45.656;11.302;2023-03-05T13:18:00;45.00;;;27.77;;
33160;SDS011;19522;45.656;11.302;2023-03-05T13:20:32;42.38;;;29.20;;
33160;SDS011;19522;45.656;11.302;2023-03-05T13:25:58;44.03;;;29.90;;
33160;SDS011;19522;45.656;11.302;2023-03-05T13:28:26;45.60;;;29.30;;
33160;SDS011;19522;45.656;11.302;2023-03-05T13:30:59;49.83;;;31.33;;
33160;SDS011;19522;45.656;11.302;2023-03-05T13:33:31;48.00;;;31.17;;
33160;SDS011;19522;45.656;11.302;2023-03-05T13:35:59;46.38;;;31.10;;
33160;SDS011;19522;45.656;11.302;2023-03-05T13:38:30;45.38;;;30.58;;
33160;SDS011;19522;45.656;11.302;2023-03-05T13:41:01;49.03;;;33.05;;
33160;SDS011;19522;45.656;11.302;2023-03-05T13:46:34;53.03;;;33.83;;
33160;SDS011;19522;45.656;11.302;2023-03-05T13:49:16;46.13;;;31.38;;
33160;SDS011;19522;45.656;11.302;2023-03-05T13:51:50;51.45;;;32.33;;
33160;SDS011;19522;45.656;11.302;2023-03-05T13:54:20;55.13;;;34.72;;
33160;SDS011;19522;45.656;11.302;2023-03-05T13:59:31;55.85;;;36.15;;
33160;SDS011;19522;45.656;11.302;2023-03-05T14:02:03;52.70;;;33.90;;
33160;SDS011;19522;45.656;11.302;2023-03-05T14:04:43;54.25;;;36.42;;
33160;SDS011;19522;45.656;11.302;2023-03-05T14:09:45;53.92;;;34.88;;
33160;SDS011;19522;45.656;11.302;2023-03-05T14:14:58;53.00;;;34.88;;
33160;SDS011;19522;45.656;11.302;2023-03-05T14:19:52;51.00;;;34.10;;
33160;SDS011;19522;45.656;11.302;2023-03-05T14:22:55;56.55;;;36.05;;
33160;SDS011;19522;45.656;11.302;2023-03-05T14:27:51;54.10;;;35.22;;
33160;SDS011;19522;45.656;11.302;2023-03-05T14:30:18;55.15;;;34.03;;
33160;SDS011;19522;45.656;11.302;2023-03-05T14:32:45;55.33;;;35.70;;
33160;SDS011;19522;45.656;11.302;2023-03-05T14:35:15;57.33;;;37.03;;
33160;SDS011;19522;45.656;11.302;2023-03-05T14:37:48;53.15;;;35.13;;
33160;SDS011;19522;45.656;11.302;2023-03-05T14:40:17;56.05;;;36.03;;
33160;SDS011;19522;45.656;11.302;2023-03-05T14:45:20;55.67;;;36.38;;
33160;SDS011;19522;45.656;11.302;2023-03-05T14:47:51;57.00;;;37.20;;
33160;SDS011;19522;45.656;11.302;2023-03-05T14:50:22;65.22;;;41.58;;
33160;SDS011;19522;45.656;11.302;2023-03-05T14:52:50;64.75;;;41.80;;
33160;SDS011;19522;45.656;11.302;2023-03-05T14:55:21;60.20;;;37.42;;
33160;SDS011;19522;45.656;11.302;2023-03-05T14:57:48;56.42;;;36.53;;
33160;SDS011;19522;45.656;11.302;2023-03-05T15:00:20;60.40;;;39.28;;
33160;SDS011;19522;45.656;11.302;2023-03-05T15:02:47;56.53;;;37.67;;
33160;SDS011;19522;45.656;11.302;2023-03-05T15:05:13;56.65;;;36.67;;
33160;SDS011;19522;45.656;11.302;2023-03-05T15:07:39;58.80;;;37.08;;
33160;SDS011;19522;45.656;11.302;2023-03-05T15:10:06;57.95;;;37.33;;
33160;SDS011;19522;45.656;11.302;2023-03-05T15:12:32;55.17;;;37.55;;
33160;SDS011;19522;45.656;11.302;2023-03-05T15:14:58;50.42;;;35.65;;
33160;SDS011;19522;45.656;11.302;2023-03-05T15:17:28;60.28;;;38.40;;
33160;SDS011;19522;45.656;11.302;2023-03-05T15:19:55;56.83;;;37.30;;
33160;SDS011;19522;45.656;11.302;2023-03-05T15:22:20;55.53;;;37.05;;
33160;SDS011;19522;45.656;11.302;2023-03-05T15:24:45;57.58;;;36.17;;
33160;SDS011;19522;45.656;11.302;2023-03-05T15:27:11;54.50;;;36.40;;
33160;SDS011;19522;45.656;11.302;2023-03-05T15:29:36;58.53;;;35.42;;
33160;SDS011;19522;45.656;11.302;2023-03-05T15:32:02;54.50;;;36.47;;
33160;SDS011;19522;45.656;11.302;2023-03-05T15:34:29;54.85;;;37.20;;
33160;SDS011;19522;45.656;11.302;2023-03-05T15:36:55;55.38;;;36.92;;
33160;SDS011;19522;45.656;11.302;2023-03-05T15:39:21;52.45;;;35.08;;
33160;SDS011;19522;45.656;11.302;2023-03-05T15:41:49;54.53;;;34.63;;
33160;SDS011;19522;45.656;11.302;2023-03-05T15:44:15;50.80;;;34.67;;
33160;SDS011;19522;45.656;11.302;2023-03-05T15:46:41;55.17;;;35.17;;
33160;SDS011;19522;45.656;11.302;2023-03-05T15:49:06;64.60;;;37.20;;
33160;SDS011;19522;45.656;11.302;2023-03-05T15:51:31;57.90;;;37.63;;
33160;SDS011;19522;45.656;11.302;2023-03-05T15:53:57;57.08;;;37.90;;
33160;SDS011;19522;45.656;11.302;2023-03-05T15:56:23;58.45;;;35.95;;
33160;SDS011;19522;45.656;11.302;2023-03-05T15:58:48;54.20;;;34.95;;
33160;SDS011;19522;45.656;11.302;2023-03-05T16:01:14;58.10;;;37.63;;
33160;SDS011;19522;45.656;11.302;2023-03-05T16:03:43;52.97;;;34.92;;
33160;SDS011;19522;45.656;11.302;2023-03-05T16:06:09;53.08;;;34.65;;
33160;SDS011;19522;45.656;11.302;2023-03-05T16:08:36;56.70;;;34.83;;
33160;SDS011;19522;45.656;11.302;2023-03-05T16:11:03;55.15;;;35.13;;
33160;SDS011;19522;45.656;11.302;2023-03-05T16:13:29;57.70;;;37.80;;
33160;SDS011;19522;45.656;11.302;2023-03-05T16:15:56;60.47;;;39.33;;
33160;SDS011;19522;45.656;11.302;2023-03-05T16:18:22;56.78;;;38.33;;
33160;SDS011;19522;45.656;11.302;2023-03-05T16:20:49;58.80;;;37.70;;